createdAt,value
2016-07-17T00:00:10.371Z,16.44
2016-07-17T00:01:10.363Z,16.47
2016-07-17T00:02:10.364Z,16.4
2016-07-17T00:03:10.364Z,16.36
2016-07-17T00:04:10.373Z,16.4
2016-07-17T00:05:10.346Z,16.29
2016-07-17T00:06:10.353Z,16.36
2016-07-17T00:07:10.358Z,16.42
2016-07-17T00:08:10.360Z,16.33
2016-07-17T00:09:10.355Z,16.37
2016-07-17T00:10:10.345Z,16.33
2016-07-17T00:11:10.332Z,16.3
2016-07-17T00:12:10.355Z,16.27
2016-07-17T00:13:10.342Z,16.3
2016-07-17T00:14:10.336Z,16.33
2016-07-17T00:15:10.338Z,16.27
2016-07-17T00:16:10.342Z,16.37
2016-07-17T00:17:10.341Z,16.3
2016-07-17T00:18:10.325Z,16.29
2016-07-17T00:19:10.321Z,16.18
2016-07-17T00:20:10.330Z,16.32
2016-07-17T00:21:10.319Z,16.3
2016-07-17T00:22:10.309Z,16.33
2016-07-17T00:23:10.311Z,16.32
2016-07-17T00:24:10.304Z,16.32
2016-07-17T00:25:10.298Z,16.27
2016-07-17T00:26:10.294Z,16.18
2016-07-17T00:27:10.298Z,16.16
2016-07-17T00:28:10.288Z,16.18
2016-07-17T00:29:10.290Z,16.17
2016-07-17T00:30:10.285Z,16.29
2016-07-17T00:31:11.737Z,16.27
2016-07-17T00:32:10.288Z,16.25
2016-07-17T00:33:10.299Z,16.25
2016-07-17T00:34:10.285Z,16.27
2016-07-17T00:35:10.287Z,16.27
2016-07-17T00:36:10.293Z,16.32
2016-07-17T00:37:10.268Z,16.32
2016-07-17T00:38:10.265Z,16.18
2016-07-17T00:39:10.256Z,16.13
2016-07-17T00:40:10.275Z,16.26
2016-07-17T00:41:10.257Z,16.36
2016-07-17T00:42:10.272Z,16.18
2016-07-17T00:43:10.468Z,16.29
2016-07-17T00:44:10.264Z,16.3
2016-07-17T00:45:10.271Z,16.27
2016-07-17T00:46:10.255Z,16.16
2016-07-17T00:47:10.260Z,16.27
2016-07-17T00:48:10.267Z,16.27
2016-07-17T00:49:10.235Z,16.17
2016-07-17T00:50:10.231Z,16.33
2016-07-17T00:51:10.236Z,16.29
2016-07-17T00:52:10.237Z,16.21
2016-07-17T00:53:10.973Z,16.33
2016-07-17T00:54:10.233Z,16.36
2016-07-17T00:55:10.225Z,16.18
2016-07-17T00:56:10.234Z,16.32
2016-07-17T00:57:10.220Z,16.33
2016-07-17T00:58:10.206Z,16.18
2016-07-17T00:59:10.939Z,16.32
2016-07-17T01:00:10.209Z,16.32
2016-07-17T01:01:10.210Z,16.27
2016-07-17T01:02:10.222Z,16.33
2016-07-17T01:03:10.196Z,16.32
2016-07-17T01:04:10.206Z,16.22
2016-07-17T01:05:10.232Z,16.27
2016-07-17T01:06:10.199Z,16.26
2016-07-17T01:07:10.193Z,16.27
2016-07-17T01:08:10.182Z,16.33
2016-07-17T01:09:10.185Z,16.27
2016-07-17T01:10:10.186Z,16.27
2016-07-17T01:11:10.182Z,16.27
2016-07-17T01:12:10.164Z,16.17
2016-07-17T01:13:10.174Z,16.26
2016-07-17T01:14:10.175Z,16.13
2016-07-17T01:15:10.176Z,16.18
2016-07-17T01:16:10.164Z,16.22
2016-07-17T01:17:10.181Z,16.13
2016-07-17T01:18:10.154Z,16.21
2016-07-17T01:19:10.162Z,16.29
2016-07-17T01:20:10.155Z,16.21
2016-07-17T01:21:10.155Z,16.21
2016-07-17T01:22:10.168Z,16.13
2016-07-17T01:23:10.166Z,16.26
2016-07-17T01:24:10.173Z,16.16
2016-07-17T01:25:10.149Z,16.21
2016-07-17T01:26:10.167Z,16.16
2016-07-17T01:27:10.159Z,16.25
2016-07-17T01:28:10.139Z,16.21
2016-07-17T01:29:10.147Z,16.22
2016-07-17T01:30:10.129Z,16.14
2016-07-17T01:31:10.123Z,16.1
2016-07-17T01:32:10.117Z,16.16
2016-07-17T01:33:10.120Z,16.16
2016-07-17T01:34:10.119Z,16.06
2016-07-17T01:35:10.134Z,16.11
2016-07-17T01:36:10.124Z,16.06
2016-07-17T01:37:10.109Z,16.04
2016-07-17T01:38:10.110Z,16
2016-07-17T01:39:10.108Z,15.95
2016-07-17T01:40:10.104Z,15.93
2016-07-17T01:41:10.121Z,15.86
2016-07-17T01:42:10.098Z,15.89
2016-07-17T01:43:10.084Z,15.74
2016-07-17T01:44:10.094Z,15.75
2016-07-17T01:45:10.091Z,15.75
2016-07-17T01:46:10.090Z,15.75
2016-07-17T01:47:10.075Z,15.74
2016-07-17T01:48:10.069Z,15.75
2016-07-17T01:49:10.074Z,15.73
2016-07-17T01:50:10.081Z,15.75
2016-07-17T01:51:10.072Z,15.77
2016-07-17T01:52:10.073Z,15.73
2016-07-17T01:53:10.058Z,15.74
2016-07-17T01:54:10.056Z,15.81
2016-07-17T01:55:10.064Z,15.71
2016-07-17T01:56:10.095Z,15.74
2016-07-17T01:57:10.048Z,15.81
2016-07-17T01:58:10.758Z,15.93
2016-07-17T01:59:10.038Z,15.88
2016-07-17T02:00:10.039Z,15.88
2016-07-17T02:01:10.034Z,15.8
2016-07-17T02:02:10.036Z,15.89
2016-07-17T02:03:10.038Z,15.86
2016-07-17T02:04:10.035Z,15.93
2016-07-17T02:05:10.036Z,15.83
2016-07-17T02:06:10.033Z,15.86
2016-07-17T02:07:10.036Z,15.78
2016-07-17T02:08:10.054Z,15.77
2016-07-17T02:09:10.026Z,15.75
2016-07-17T02:10:10.010Z,15.77
2016-07-17T02:11:10.027Z,15.75
2016-07-17T02:12:10.781Z,15.74
2016-07-17T02:13:09.995Z,15.73
2016-07-17T02:14:10.002Z,15.75
2016-07-17T02:15:10.020Z,15.74
2016-07-17T02:16:10.005Z,15.77
2016-07-17T02:17:09.982Z,15.73
2016-07-17T02:18:09.990Z,15.7
2016-07-17T02:19:10.006Z,15.73
2016-07-17T02:20:09.996Z,15.71
2016-07-17T02:21:10.003Z,15.7
2016-07-17T02:22:09.997Z,15.73
2016-07-17T02:23:09.974Z,15.73
2016-07-17T02:24:09.974Z,15.73
2016-07-17T02:25:09.973Z,15.75
2016-07-17T02:26:09.979Z,15.78
2016-07-17T02:27:09.973Z,15.74
2016-07-17T02:28:09.959Z,15.74
2016-07-17T02:29:10.668Z,15.78
2016-07-17T02:30:09.943Z,15.78
2016-07-17T02:31:09.951Z,15.77
2016-07-17T02:32:09.942Z,15.77
2016-07-17T02:33:09.951Z,15.75
2016-07-17T02:34:09.943Z,15.77
2016-07-17T02:35:09.944Z,15.84
2016-07-17T02:36:09.946Z,15.77
2016-07-17T02:37:09.935Z,15.75
2016-07-17T02:38:09.963Z,15.91
2016-07-17T02:39:09.962Z,15.92
2016-07-17T02:40:09.915Z,15.89
2016-07-17T02:41:09.917Z,15.73
2016-07-17T02:42:09.933Z,15.89
2016-07-17T02:43:10.611Z,15.84
2016-07-17T02:44:09.925Z,15.8
2016-07-17T02:45:09.912Z,15.86
2016-07-17T02:46:09.916Z,15.89
2016-07-17T02:47:09.917Z,15.83
2016-07-17T02:48:09.895Z,15.83
2016-07-17T02:49:09.908Z,15.91
2016-07-17T02:50:09.895Z,15.73
2016-07-17T02:51:09.889Z,15.86
2016-07-17T02:52:09.887Z,15.86
2016-07-17T02:53:09.879Z,15.86
2016-07-17T02:54:09.886Z,15.88
2016-07-17T02:55:09.885Z,15.74
2016-07-17T02:56:09.872Z,15.74
2016-07-17T02:57:09.885Z,15.77
2016-07-17T02:58:09.863Z,15.75
2016-07-17T02:59:09.863Z,15.73
2016-07-17T03:00:09.860Z,15.77
2016-07-17T03:01:09.865Z,15.77
2016-07-17T03:02:09.854Z,15.77
2016-07-17T03:03:09.843Z,15.75
2016-07-17T03:04:09.846Z,15.75
2016-07-17T03:05:09.848Z,15.77
2016-07-17T03:06:09.859Z,15.71
2016-07-17T03:07:09.847Z,15.77
2016-07-17T03:08:09.845Z,15.77
2016-07-17T03:09:09.827Z,15.89
2016-07-17T03:10:09.837Z,15.93
2016-07-17T03:11:09.841Z,15.84
2016-07-17T03:12:09.816Z,15.86
2016-07-17T03:13:09.825Z,15.92
2016-07-17T03:14:09.829Z,15.88
2016-07-17T03:15:09.833Z,15.89
2016-07-17T03:16:09.807Z,15.91
2016-07-17T03:17:09.812Z,15.89
2016-07-17T03:18:09.804Z,15.83
2016-07-17T03:19:09.808Z,15.81
2016-07-17T03:20:09.796Z,15.83
2016-07-17T03:21:09.796Z,15.73
2016-07-17T03:22:09.789Z,15.86
2016-07-17T03:23:09.788Z,15.8
2016-07-17T03:24:09.795Z,15.83
2016-07-17T03:25:09.793Z,15.89
2016-07-17T03:26:09.835Z,15.89
2016-07-17T03:27:09.785Z,15.83
2016-07-17T03:28:09.781Z,15.86
2016-07-17T03:29:10.485Z,15.88
2016-07-17T03:31:09.779Z,15.84
2016-07-17T03:32:09.769Z,15.91
2016-07-17T03:33:09.767Z,15.96
2016-07-17T03:34:09.769Z,15.96
2016-07-17T03:35:09.756Z,15.92
2016-07-17T03:36:10.002Z,15.96
2016-07-17T03:37:09.758Z,15.99
2016-07-17T03:38:09.790Z,15.95
2016-07-17T03:39:09.735Z,15.96
2016-07-17T03:40:09.799Z,15.93
2016-07-17T03:41:09.763Z,15.91
2016-07-17T03:42:09.737Z,15.99
2016-07-17T03:43:09.745Z,15.95
2016-07-17T03:44:09.831Z,15.93
2016-07-17T03:45:09.745Z,15.93
2016-07-17T03:46:09.986Z,15.92
2016-07-17T03:47:10.481Z,16.02
2016-07-17T03:48:09.731Z,16.06
2016-07-17T03:49:09.719Z,16.04
2016-07-17T03:50:09.729Z,16.1
2016-07-17T03:51:09.704Z,16.04
2016-07-17T03:52:09.739Z,16.1
2016-07-17T03:53:09.711Z,16.08
2016-07-17T03:54:09.701Z,16.14
2016-07-17T03:55:09.700Z,16.13
2016-07-17T03:56:09.690Z,16.06
2016-07-17T03:57:09.696Z,16.07
2016-07-17T03:58:09.703Z,16.06
2016-07-17T03:59:09.689Z,16.07
2016-07-17T04:00:09.678Z,16.08
2016-07-17T04:01:09.685Z,16.11
2016-07-17T04:02:09.684Z,16.08
2016-07-17T04:03:09.691Z,16.11
2016-07-17T04:04:09.683Z,16.07
2016-07-17T04:05:09.674Z,16.13
2016-07-17T04:06:09.688Z,16.16
2016-07-17T04:07:09.673Z,16.1
2016-07-17T04:08:09.670Z,16.18
2016-07-17T04:09:09.662Z,16.17
2016-07-17T04:10:09.691Z,16.21
2016-07-17T04:11:10.941Z,16.16
2016-07-17T04:12:10.781Z,16.13
2016-07-17T04:13:24.598Z,16.11
2016-07-17T04:14:09.888Z,16.25
2016-07-17T04:15:10.739Z,16.25
2016-07-17T04:16:09.647Z,16.22
2016-07-17T04:17:10.119Z,16.22
2016-07-17T04:18:09.690Z,16.27
2016-07-17T04:19:09.845Z,16.26
2016-07-17T04:20:09.791Z,16.25
2016-07-17T04:21:24.515Z,16.21
2016-07-17T04:22:09.618Z,16.26
2016-07-17T04:24:09.727Z,16.3
2016-07-17T04:25:10.719Z,16.25
2016-07-17T04:26:09.599Z,16.26
2016-07-17T04:27:09.628Z,16.29
2016-07-17T04:28:10.335Z,16.32
2016-07-17T04:30:09.603Z,16.3
2016-07-17T04:31:09.583Z,16.29
2016-07-17T04:32:09.876Z,16.37
2016-07-17T04:33:09.585Z,16.47
2016-07-17T04:34:09.649Z,16.42
2016-07-17T04:35:09.593Z,16.44
2016-07-17T04:36:09.599Z,16.54
2016-07-17T04:37:09.737Z,16.45
2016-07-17T04:38:09.578Z,16.51
2016-07-17T04:39:09.563Z,16.54
2016-07-17T04:40:09.571Z,16.62
2016-07-17T04:41:09.599Z,16.52
2016-07-17T04:42:09.557Z,16.58
2016-07-17T04:43:09.557Z,16.55
2016-07-17T04:44:09.559Z,16.52
2016-07-17T04:45:09.566Z,16.55
2016-07-17T04:46:09.546Z,16.62
2016-07-17T04:47:09.548Z,16.52
2016-07-17T04:48:09.543Z,16.49
2016-07-17T04:49:09.543Z,16.59
2016-07-17T04:50:09.543Z,16.57
2016-07-17T04:51:09.538Z,16.62
2016-07-17T04:52:09.544Z,16.57
2016-07-17T04:53:09.533Z,16.57
2016-07-17T04:54:09.551Z,16.59
2016-07-17T04:55:09.530Z,16.52
2016-07-17T04:56:09.569Z,16.63
2016-07-17T04:57:09.525Z,16.67
2016-07-17T04:58:09.526Z,16.72
2016-07-17T04:59:09.519Z,16.77
2016-07-17T05:00:09.531Z,16.77
2016-07-17T05:01:09.511Z,16.8
2016-07-17T05:02:09.520Z,16.84
2016-07-17T05:03:09.526Z,16.88
2016-07-17T05:04:09.528Z,16.85
2016-07-17T05:05:09.535Z,16.81
2016-07-17T05:06:09.514Z,16.82
2016-07-17T05:07:09.497Z,16.99
2016-07-17T05:08:09.493Z,16.9
2016-07-17T05:09:09.495Z,16.9
2016-07-17T05:10:09.500Z,16.9
2016-07-17T05:11:09.519Z,17
2016-07-17T05:12:09.521Z,16.91
2016-07-17T05:13:09.532Z,17.05
2016-07-17T05:14:09.486Z,17.07
2016-07-17T05:15:09.502Z,17.02
2016-07-17T05:16:09.481Z,17.06
2016-07-17T05:17:09.499Z,17.06
2016-07-17T05:18:09.502Z,17.13
2016-07-17T05:19:09.468Z,17.1
2016-07-17T05:20:09.463Z,17.13
2016-07-17T05:21:09.464Z,17.18
2016-07-17T05:22:09.468Z,17.21
2016-07-17T05:23:09.708Z,17.24
2016-07-17T05:24:09.458Z,17.28
2016-07-17T05:25:09.471Z,17.18
2016-07-17T05:26:09.472Z,17.21
2016-07-17T05:27:09.465Z,17.36
2016-07-17T05:28:09.477Z,17.25
2016-07-17T05:29:09.484Z,17.25
2016-07-17T05:30:09.459Z,17.38
2016-07-17T05:31:09.506Z,17.4
2016-07-17T05:32:09.440Z,17.31
2016-07-17T05:33:10.152Z,17.35
2016-07-17T05:34:09.459Z,17.39
2016-07-17T05:35:09.437Z,17.32
2016-07-17T05:36:10.206Z,17.35
2016-07-17T05:37:09.443Z,17.36
2016-07-17T05:38:10.158Z,17.43
2016-07-17T05:39:09.454Z,17.49
2016-07-17T05:40:09.469Z,17.55
2016-07-17T05:41:09.488Z,17.52
2016-07-17T05:42:09.473Z,17.46
2016-07-17T05:43:09.497Z,17.57
2016-07-17T05:44:09.422Z,17.46
2016-07-17T05:45:09.417Z,17.49
2016-07-17T05:46:10.119Z,17.46
2016-07-17T05:47:09.421Z,17.57
2016-07-17T05:48:09.810Z,17.65
2016-07-17T05:49:09.440Z,17.45
2016-07-17T05:50:09.443Z,17.58
2016-07-17T05:51:09.451Z,17.6
2016-07-17T05:52:09.460Z,17.58
2016-07-17T05:53:09.457Z,17.63
2016-07-17T05:54:09.466Z,17.73
2016-07-17T05:55:09.476Z,17.73
2016-07-17T05:56:09.405Z,17.83
2016-07-17T05:57:09.386Z,17.86
2016-07-17T05:58:09.400Z,17.8
2016-07-17T05:59:10.128Z,17.83
2016-07-17T06:00:09.413Z,17.88
2016-07-17T06:01:09.420Z,17.87
2016-07-17T06:02:09.432Z,17.81
2016-07-17T06:03:09.443Z,17.83
2016-07-17T06:04:09.454Z,17.81
2016-07-17T06:05:09.462Z,17.68
2016-07-17T06:06:09.456Z,17.68
2016-07-17T06:07:09.468Z,17.66
2016-07-17T06:08:09.460Z,17.58
2016-07-17T06:09:09.386Z,17.6
2016-07-17T06:10:09.386Z,17.46
2016-07-17T06:11:09.402Z,17.57
2016-07-17T06:12:09.405Z,17.5
2016-07-17T06:13:09.420Z,17.47
2016-07-17T06:14:09.423Z,17.57
2016-07-17T06:15:09.431Z,17.49
2016-07-17T06:16:09.425Z,17.42
2016-07-17T06:17:09.436Z,17.43
2016-07-17T06:18:09.397Z,17.4
2016-07-17T06:19:09.441Z,17.36
2016-07-17T06:20:09.460Z,17.32
2016-07-17T06:21:09.366Z,17.31
2016-07-17T06:22:09.369Z,17.28
2016-07-17T06:23:09.438Z,17.25
2016-07-17T06:24:09.385Z,17.17
2016-07-17T06:25:09.426Z,17.2
2016-07-17T06:26:09.398Z,17.24
2016-07-17T06:27:09.406Z,17.1
2016-07-17T06:28:09.409Z,17.06
2016-07-17T06:29:09.409Z,17.12
2016-07-17T06:30:09.424Z,17.03
2016-07-17T06:31:09.435Z,16.99
2016-07-17T06:32:09.436Z,17.09
2016-07-17T06:33:09.396Z,17.05
2016-07-17T06:34:09.359Z,17.03
2016-07-17T06:35:09.360Z,17.02
2016-07-17T06:36:09.360Z,16.94
2016-07-17T06:37:09.380Z,17.05
2016-07-17T06:38:09.413Z,16.95
2016-07-17T06:39:09.373Z,16.91
2016-07-17T06:40:09.422Z,16.95
2016-07-17T06:41:09.430Z,16.95
2016-07-17T06:42:09.420Z,16.9
2016-07-17T06:43:10.093Z,16.84
2016-07-17T06:44:09.403Z,16.87
2016-07-17T06:45:09.370Z,16.82
2016-07-17T06:46:09.348Z,16.76
2016-07-17T06:47:09.372Z,16.76
2016-07-17T06:48:09.380Z,16.84
2016-07-17T06:49:09.388Z,16.84
2016-07-17T06:50:09.392Z,16.72
2016-07-17T06:51:09.427Z,16.85
2016-07-17T06:52:09.624Z,16.87
2016-07-17T06:53:09.402Z,16.85
2016-07-17T06:54:09.352Z,16.82
2016-07-17T06:55:09.347Z,16.94
2016-07-17T06:56:09.363Z,16.95
2016-07-17T06:57:09.367Z,16.95
2016-07-17T06:58:09.339Z,16.92
2016-07-17T06:59:09.351Z,16.99
2016-07-17T07:00:09.360Z,16.82
2016-07-17T07:01:09.368Z,16.91
2016-07-17T07:02:09.375Z,16.82
2016-07-17T07:03:09.980Z,16.87
2016-07-17T07:04:09.404Z,16.91
2016-07-17T07:05:09.390Z,16.97
2016-07-17T07:06:09.342Z,16.92
2016-07-17T07:07:09.352Z,16.99
2016-07-17T07:08:10.038Z,16.91
2016-07-17T07:09:09.365Z,16.95
2016-07-17T07:10:09.370Z,17.1
2016-07-17T07:11:09.986Z,17.02
2016-07-17T07:12:09.338Z,17.03
2016-07-17T07:13:09.361Z,17.06
2016-07-17T07:14:09.285Z,16.95
2016-07-17T07:15:09.352Z,17.07
2016-07-17T07:16:09.362Z,16.99
2016-07-17T07:17:09.316Z,16.95
2016-07-17T07:18:09.324Z,17.03
2016-07-17T07:19:09.323Z,17.09
2016-07-17T07:20:09.342Z,17.03
2016-07-17T07:21:09.368Z,17.06
2016-07-17T07:22:09.339Z,17.1
2016-07-17T07:23:09.311Z,17.1
2016-07-17T07:24:09.351Z,17.18
2016-07-17T07:25:09.355Z,17.25
2016-07-17T07:26:09.349Z,17.17
2016-07-17T07:27:09.290Z,17.21
2016-07-17T07:28:09.285Z,17.18
2016-07-17T07:29:09.306Z,17.12
2016-07-17T07:30:09.329Z,17.07
2016-07-17T07:31:09.307Z,17.18
2016-07-17T07:32:09.325Z,17.24
2016-07-17T07:33:09.353Z,17.2
2016-07-17T07:34:09.362Z,17.18
2016-07-17T07:35:09.341Z,17.2
2016-07-17T07:36:09.298Z,17.2
2016-07-17T07:37:09.315Z,17.32
2016-07-17T07:38:09.259Z,17.42
2016-07-17T07:39:09.270Z,17.52
2016-07-17T07:40:09.267Z,17.47
2016-07-17T07:41:09.277Z,17.55
2016-07-17T07:42:09.230Z,17.62
2016-07-17T07:43:09.284Z,17.73
2016-07-17T07:44:09.301Z,17.77
2016-07-17T07:45:09.299Z,17.86
2016-07-17T07:46:09.335Z,17.92
2016-07-17T07:47:09.317Z,17.9
2016-07-17T07:48:09.240Z,17.86
2016-07-17T07:49:09.225Z,17.95
2016-07-17T07:50:09.233Z,17.95
2016-07-17T07:51:09.236Z,17.98
2016-07-17T07:52:09.250Z,17.86
2016-07-17T07:53:09.257Z,17.84
2016-07-17T07:54:09.270Z,17.79
2016-07-17T07:55:09.280Z,17.77
2016-07-17T07:56:09.289Z,17.77
2016-07-17T07:57:09.286Z,17.83
2016-07-17T07:58:09.312Z,17.83
2016-07-17T07:59:09.300Z,17.87
2016-07-17T08:00:09.212Z,17.87
2016-07-17T08:01:09.207Z,17.94
2016-07-17T08:02:09.215Z,17.9
2016-07-17T08:03:09.234Z,17.95
2016-07-17T08:04:09.245Z,18.1
2016-07-17T08:05:09.251Z,18.02
2016-07-17T08:06:09.257Z,18.17
2016-07-17T08:07:09.249Z,18.14
2016-07-17T08:08:09.269Z,18.19
2016-07-17T08:09:09.277Z,18.2
2016-07-17T08:10:09.291Z,18.35
2016-07-17T08:11:09.314Z,18.29
2016-07-17T08:12:09.287Z,18.44
2016-07-17T08:13:09.202Z,18.54
2016-07-17T08:14:09.201Z,18.68
2016-07-17T08:15:09.876Z,18.78
2016-07-17T08:16:09.227Z,18.97
2016-07-17T08:17:09.223Z,19.17
2016-07-17T08:18:09.244Z,19.27
2016-07-17T08:19:09.252Z,19.45
2016-07-17T08:20:09.273Z,19.43
2016-07-17T08:21:09.275Z,19.32
2016-07-17T08:22:09.287Z,19.32
2016-07-17T08:23:09.284Z,19.27
2016-07-17T08:24:09.290Z,19.2
2016-07-17T08:25:09.206Z,19.16
2016-07-17T08:26:09.206Z,19.09
2016-07-17T08:27:09.192Z,19.06
2016-07-17T08:28:09.200Z,19.05
2016-07-17T08:29:09.239Z,19.02
2016-07-17T08:30:09.232Z,19.02
2016-07-17T08:31:09.221Z,19.05
2016-07-17T08:32:09.297Z,18.94
2016-07-17T08:33:09.230Z,18.94
2016-07-17T08:34:09.258Z,18.75
2016-07-17T08:35:09.270Z,18.72
2016-07-17T08:36:09.288Z,18.65
2016-07-17T08:37:09.284Z,18.65
2016-07-17T08:38:09.178Z,18.5
2016-07-17T08:39:09.188Z,18.29
2016-07-17T08:40:09.201Z,18.23
2016-07-17T08:41:09.208Z,18.21
2016-07-17T08:42:09.223Z,18.08
2016-07-17T08:43:09.209Z,18.02
2016-07-17T08:44:09.232Z,17.86
2016-07-17T08:45:09.243Z,17.76
2016-07-17T08:46:09.240Z,17.77
2016-07-17T08:47:09.263Z,17.69
2016-07-17T08:48:09.250Z,17.58
2016-07-17T08:49:09.260Z,17.57
2016-07-17T08:50:09.165Z,17.54
2016-07-17T08:51:09.175Z,17.5
2016-07-17T08:52:09.195Z,17.49
2016-07-17T08:53:11.299Z,17.38
2016-07-17T08:54:09.214Z,17.35
2016-07-17T08:55:09.218Z,17.27
2016-07-17T08:56:09.215Z,17.15
2016-07-17T08:57:09.225Z,17.24
2016-07-17T08:58:09.371Z,17.2
2016-07-17T08:59:10.669Z,17.18
2016-07-17T09:00:12.226Z,17.22
2016-07-17T09:01:09.262Z,17.13
2016-07-17T09:02:09.223Z,17.17
2016-07-17T09:03:09.235Z,17.2
2016-07-17T09:04:09.853Z,17.17
2016-07-17T09:05:09.880Z,17.13
2016-07-17T09:06:09.200Z,17.1
2016-07-17T09:07:09.206Z,17.03
2016-07-17T09:08:09.202Z,17.02
2016-07-17T09:09:09.220Z,17.07
2016-07-17T09:10:09.223Z,17.13
2016-07-17T09:11:09.230Z,16.95
2016-07-17T09:12:09.298Z,16.99
2016-07-17T09:13:09.232Z,17
2016-07-17T09:14:09.034Z,17
2016-07-17T09:15:09.039Z,17.06
2016-07-17T09:16:09.035Z,17.06
2016-07-17T09:17:09.146Z,17.1
2016-07-17T09:18:09.153Z,17.09
2016-07-17T09:19:09.026Z,17.12
2016-07-17T09:20:09.077Z,17.17
2016-07-17T09:21:09.183Z,17.24
2016-07-17T09:22:09.754Z,17.2
2016-07-17T09:23:09.028Z,17.25
2016-07-17T09:24:09.021Z,17.35
2016-07-17T09:25:09.033Z,17.55
2016-07-17T09:26:09.026Z,17.58
2016-07-17T09:27:09.208Z,17.58
2016-07-17T09:28:08.997Z,17.68
2016-07-17T09:29:08.992Z,17.65
2016-07-17T09:30:09.523Z,17.68
2016-07-17T09:31:09.105Z,17.79
2016-07-17T09:32:08.980Z,17.86
2016-07-17T09:33:09.003Z,17.9
2016-07-17T09:34:08.979Z,17.92
2016-07-17T09:35:08.985Z,18.02
2016-07-17T09:36:09.794Z,18.03
2016-07-17T09:37:08.983Z,18.23
2016-07-17T09:38:08.976Z,18.23
2016-07-17T09:39:08.983Z,18.45
2016-07-17T09:40:09.054Z,18.59
2016-07-17T09:41:08.983Z,18.75
2016-07-17T09:42:09.079Z,18.94
2016-07-17T09:43:08.981Z,19
2016-07-17T09:44:08.963Z,19.07
2016-07-17T09:45:09.091Z,19.09
2016-07-17T09:46:09.109Z,19.19
2016-07-17T09:47:09.037Z,19.2
2016-07-17T09:48:09.171Z,19.05
2016-07-17T09:49:09.012Z,19.05
2016-07-17T09:50:09.001Z,18.96
2016-07-17T09:51:09.197Z,18.89
2016-07-17T09:52:08.991Z,18.81
2016-07-17T09:53:09.198Z,18.59
2016-07-17T09:54:09.172Z,18.61
2016-07-17T09:55:09.030Z,18.68
2016-07-17T09:56:09.159Z,18.65
2016-07-17T09:57:09.092Z,18.72
2016-07-17T09:58:09.044Z,18.9
2016-07-17T09:59:08.958Z,18.93
2016-07-17T10:00:08.983Z,18.96
2016-07-17T10:01:09.158Z,19.07
2016-07-17T10:02:09.719Z,19.15
2016-07-17T10:03:09.711Z,19.3
2016-07-17T10:04:09.688Z,19.46
2016-07-17T10:05:08.972Z,19.55
2016-07-17T10:06:09.019Z,19.8
2016-07-17T10:07:08.989Z,19.95
2016-07-17T10:08:09.264Z,20.11
2016-07-17T10:09:09.274Z,20.26
2016-07-17T10:10:09.707Z,20.63
2016-07-17T10:11:08.969Z,20.9
2016-07-17T10:12:08.970Z,21.15
2016-07-17T10:13:09.218Z,21.34
2016-07-17T10:14:09.019Z,21.71
2016-07-17T10:15:09.235Z,21.9
2016-07-17T10:16:08.973Z,22.09
2016-07-17T10:17:09.034Z,22.15
2016-07-17T10:18:08.944Z,22.16
2016-07-17T10:19:08.945Z,22.26
2016-07-17T10:20:09.290Z,22.26
2016-07-17T10:21:09.803Z,22.23
2016-07-17T10:22:08.943Z,22.36
2016-07-17T10:23:08.934Z,22.41
2016-07-17T10:24:08.950Z,22.39
2016-07-17T10:25:08.982Z,22.27
2016-07-17T10:26:08.935Z,22.22
2016-07-17T10:27:09.163Z,22.2
2016-07-17T10:28:09.007Z,22.02
2016-07-17T10:29:08.955Z,22.11
2016-07-17T10:30:08.984Z,22.24
2016-07-17T10:31:08.963Z,22.29
2016-07-17T10:32:08.975Z,22.41
2016-07-17T10:33:08.998Z,22.42
2016-07-17T10:34:08.967Z,22.48
2016-07-17T10:35:09.924Z,22.36
2016-07-17T10:36:08.982Z,22.34
2016-07-17T10:37:08.949Z,22.18
2016-07-17T10:38:08.992Z,22.14
2016-07-17T10:39:08.968Z,22
2016-07-17T10:40:08.998Z,21.89
2016-07-17T10:41:09.194Z,21.71
2016-07-17T10:42:08.972Z,21.53
2016-07-17T10:43:08.996Z,21.25
2016-07-17T10:44:09.031Z,21.25
2016-07-17T10:45:09.713Z,21.06
2016-07-17T10:46:09.187Z,20.79
2016-07-17T10:47:08.981Z,20.74
2016-07-17T10:48:08.987Z,20.56
2016-07-17T10:49:08.996Z,20.63
2016-07-17T10:50:08.980Z,20.67
2016-07-17T10:51:08.976Z,20.75
2016-07-17T10:52:08.983Z,20.78
2016-07-17T10:53:09.007Z,20.86
2016-07-17T10:54:08.987Z,20.9
2016-07-17T10:55:09.005Z,21.04
2016-07-17T10:56:09.131Z,21.03
2016-07-17T10:57:09.007Z,21.01
2016-07-17T10:58:08.993Z,21.11
2016-07-17T10:59:23.892Z,21.19
2016-07-17T11:00:08.993Z,21.33
2016-07-17T11:01:09.015Z,21.45
2016-07-17T11:02:08.997Z,21.68
2016-07-17T11:03:09.110Z,21.83
2016-07-17T11:04:09.211Z,21.97
2016-07-17T11:05:08.993Z,22.12
2016-07-17T11:06:10.031Z,22.22
2016-07-17T11:07:09.002Z,22.38
2016-07-17T11:08:09.109Z,22.49
2016-07-17T11:09:09.023Z,22.54
2016-07-17T11:10:09.044Z,22.64
2016-07-17T11:11:09.047Z,22.63
2016-07-17T11:12:09.045Z,22.84
2016-07-17T11:13:09.169Z,23.01
2016-07-17T11:14:09.261Z,22.86
2016-07-17T11:15:09.037Z,22.85
2016-07-17T11:16:09.064Z,22.96
2016-07-17T11:17:09.040Z,23.12
2016-07-17T11:18:09.044Z,23.15
2016-07-17T11:19:09.045Z,23.01
2016-07-17T11:20:09.020Z,22.84
2016-07-17T11:21:09.042Z,22.78
2016-07-17T11:22:09.118Z,22.86
2016-07-17T11:23:09.262Z,22.91
2016-07-17T11:24:09.283Z,22.84
2016-07-17T11:25:09.027Z,22.91
2016-07-17T11:26:09.035Z,23.03
2016-07-17T11:27:09.048Z,23.14
2016-07-17T11:28:09.040Z,23.29
2016-07-17T11:29:09.750Z,23.5
2016-07-17T11:30:09.054Z,23.53
2016-07-17T11:31:09.179Z,23.6
2016-07-17T11:32:09.185Z,23.53
2016-07-17T11:33:09.067Z,23.56
2016-07-17T11:34:09.098Z,23.6
2016-07-17T11:35:09.053Z,23.64
2016-07-17T11:36:09.136Z,23.66
2016-07-17T11:37:09.097Z,23.62
2016-07-17T11:38:09.142Z,23.45
2016-07-17T11:39:09.079Z,23.45
2016-07-17T11:40:09.514Z,23.38
2016-07-17T11:41:09.301Z,23.22
2016-07-17T11:42:09.076Z,22.99
2016-07-17T11:43:09.262Z,22.88
2016-07-17T11:44:09.858Z,22.76
2016-07-17T11:45:09.102Z,22.7
2016-07-17T11:46:09.121Z,22.66
2016-07-17T11:47:09.202Z,22.49
2016-07-17T11:48:09.129Z,22.44
2016-07-17T11:49:09.296Z,22.31
2016-07-17T11:50:09.126Z,22.16
2016-07-17T11:51:09.110Z,21.92
2016-07-17T11:52:09.251Z,21.94
2016-07-17T11:53:09.099Z,21.86
2016-07-17T11:54:09.143Z,21.82
2016-07-17T11:55:09.136Z,21.71
2016-07-17T11:56:09.141Z,21.62
2016-07-17T11:57:09.117Z,21.59
2016-07-17T11:58:09.241Z,21.46
2016-07-17T11:59:09.135Z,21.31
2016-07-17T12:00:09.155Z,21.34
2016-07-17T12:01:09.219Z,21.33
2016-07-17T12:02:09.195Z,21.33
2016-07-17T12:03:09.335Z,21.43
2016-07-17T12:04:09.145Z,21.46
2016-07-17T12:05:09.138Z,21.58
2016-07-17T12:06:09.123Z,21.92
2016-07-17T12:07:09.197Z,22.07
2016-07-17T12:08:09.181Z,22.29
2016-07-17T12:09:09.128Z,22.48
2016-07-17T12:10:09.898Z,22.57
2016-07-17T12:11:09.154Z,22.66
2016-07-17T12:12:09.155Z,22.71
2016-07-17T12:13:09.189Z,22.71
2016-07-17T12:14:09.166Z,22.75
2016-07-17T12:15:09.181Z,22.73
2016-07-17T12:16:09.142Z,22.63
2016-07-17T12:17:09.431Z,22.64
2016-07-17T12:18:09.431Z,22.52
2016-07-17T12:19:09.314Z,22.48
2016-07-17T12:20:09.433Z,22.59
2016-07-17T12:21:09.337Z,22.51
2016-07-17T12:22:09.328Z,22.49
2016-07-17T12:23:09.346Z,22.55
2016-07-17T12:24:09.334Z,22.64
2016-07-17T12:25:09.359Z,22.64
2016-07-17T12:26:09.380Z,22.57
2016-07-17T12:27:09.392Z,22.66
2016-07-17T12:28:09.384Z,22.64
2016-07-17T12:29:09.389Z,22.76
2016-07-17T12:30:09.406Z,22.85
2016-07-17T12:31:09.404Z,22.81
2016-07-17T12:32:09.377Z,22.92
2016-07-17T12:33:09.478Z,22.89
2016-07-17T12:34:09.319Z,22.82
2016-07-17T12:35:09.308Z,22.85
2016-07-17T12:36:09.398Z,22.94
2016-07-17T12:37:09.362Z,23.01
2016-07-17T12:38:10.430Z,23.06
2016-07-17T12:39:10.167Z,23.28
2016-07-17T12:40:09.268Z,23.25
2016-07-17T12:41:09.222Z,23.42
2016-07-17T12:42:09.217Z,23.4
2016-07-17T12:43:09.282Z,23.52
2016-07-17T12:44:09.268Z,23.56
2016-07-17T12:45:09.248Z,23.57
2016-07-17T12:46:09.382Z,23.6
2016-07-17T12:47:09.269Z,23.71
2016-07-17T12:48:09.291Z,23.74
2016-07-17T12:49:09.270Z,23.67
2016-07-17T12:50:09.297Z,23.63
2016-07-17T12:51:09.282Z,23.42
2016-07-17T12:52:09.316Z,23.35
2016-07-17T12:53:09.326Z,23.21
2016-07-17T12:54:09.408Z,23.19
2016-07-17T12:55:09.653Z,23.14
2016-07-17T12:56:09.312Z,22.99
2016-07-17T12:57:09.341Z,23
2016-07-17T12:58:09.592Z,23.06